Time;durP1;ratioP1;P1;durP2;ratioP2;P2;SDS_P1;SDS_P2;PMS_P1;PMS_P2;Temp;Humidity;BMP_temperature;BMP_pressure;BME280_temperature;BME280_humidity;BME280_pressure;Samples;Min_cycle;Max_cycle;Signal;HPM_P1;HPM_P2
2024/01/03 00:01:49;;;;;;;50.20;26.27;;;;;;;;;;10571707;28;21024;-91
2024/01/03 00:06:51;;;;;;;49.85;24.42;;;;;;;;;;10565135;28;20454;-90
2024/01/03 00:11:55;;;;;;;48.67;24.85;;;;;;;;;;10564445;28;20819;-90
2024/01/03 00:17:02;;;;;;;46.60;24.17;;;;;;;;;;10558724;28;20400;-90
2024/01/03 00:22:04;;;;;;;45.87;24.90;;;;;;;;;;10571859;28;20479;-90
2024/01/03 00:27:08;;;;;;;46.88;24.02;;;;;;;;;;10573841;28;20456;-89
2024/01/03 00:32:12;;;;;;;44.90;23.77;;;;;;;;;;10583133;28;20451;-90
2024/01/03 00:37:36;;;;;;;44.17;24.05;;;;;;;;;;10581458;28;20399;-90
2024/01/03 00:42:40;;;;;;;43.30;23.73;;;;;;;;;;10571848;28;21069;-91
2024/01/03 00:47:42;;;;;;;44.00;23.67;;;;;;;;;;10565477;28;20399;-90
2024/01/03 00:52:45;;;;;;;42.47;22.67;;;;;;;;;;10567031;28;20423;-90
2024/01/03 00:57:48;;;;;;;43.05;22.75;;;;;;;;;;10574597;28;20461;-90
2024/01/03 01:02:51;;;;;;;38.87;22.17;;;;;;;;;;10576383;28;20411;-90
2024/01/03 01:07:54;;;;;;;41.58;22.30;;;;;;;;;;10569229;28;20881;-90
2024/01/03 01:12:57;;;;;;;40.43;21.93;;;;;;;;;;10573304;28;20464;-90
2024/01/03 01:18:00;;;;;;;44.05;21.90;;;;;;;;;;10580020;28;20431;-90
2024/01/03 01:23:02;;;;;;;44.63;22.60;;;;;;;;;;10571072;28;20402;-90
2024/01/03 01:28:07;;;;;;;41.40;22.77;;;;;;;;;;10572199;28;20448;-90
2024/01/03 01:33:10;;;;;;;46.47;23.27;;;;;;;;;;10565504;28;20404;-89
2024/01/03 01:38:12;;;;;;;44.20;22.90;;;;;;;;;;10571106;28;20414;-90
2024/01/03 01:43:16;;;;;;;45.53;22.20;;;;;;;;;;10568089;28;20510;-91
2024/01/03 01:48:19;;;;;;;43.85;23.13;;;;;;;;;;10570629;28;20403;-90
2024/01/03 01:53:22;;;;;;;46.67;23.73;;;;;;;;;;10574802;28;20410;-90
2024/01/03 01:58:27;;;;;;;45.13;24.53;;;;;;;;;;10569230;28;20432;-90
2024/01/03 02:03:29;;;;;;;47.88;23.92;;;;;;;;;;10569833;28;20391;-90
2024/01/03 02:08:33;;;;;;;48.20;24.00;;;;;;;;;;10573043;28;20469;-90
2024/01/03 02:13:37;;;;;;;45.23;24.30;;;;;;;;;;10564495;28;20445;-90
2024/01/03 02:18:40;;;;;;;47.53;23.80;;;;;;;;;;10575545;28;20443;-90
2024/01/03 02:23:44;;;;;;;44.47;24.20;;;;;;;;;;10558250;28;20408;-91
2024/01/03 02:28:46;;;;;;;45.77;24.17;;;;;;;;;;10567392;28;20516;-90
2024/01/03 02:33:49;;;;;;;47.42;22.95;;;;;;;;;;10579777;28;20861;-90
2024/01/03 02:38:54;;;;;;;47.30;23.30;;;;;;;;;;10570700;28;20410;-90
2024/01/03 02:43:56;;;;;;;46.95;24.27;;;;;;;;;;10562988;28;20426;-90
2024/01/03 02:48:58;;;;;;;46.75;23.13;;;;;;;;;;10568754;28;20463;-90
2024/01/03 02:54:02;;;;;;;48.03;23.10;;;;;;;;;;10559873;28;20814;-90
2024/01/03 02:59:05;;;;;;;49.00;22.85;;;;;;;;;;10568821;28;20473;-91
2024/01/03 03:04:07;;;;;;;47.10;22.45;;;;;;;;;;10558782;28;20465;-90
2024/01/03 03:09:11;;;;;;;46.30;21.80;;;;;;;;;;10563461;28;20467;-90
2024/01/03 03:14:15;;;;;;;48.35;24.08;;;;;;;;;;10568433;28;20428;-90
2024/01/03 03:19:17;;;;;;;45.80;24.23;;;;;;;;;;10562892;28;20412;-89
2024/01/03 03:24:21;;;;;;;47.20;25.03;;;;;;;;;;10572242;28;20459;-90
2024/01/03 03:29:24;;;;;;;44.17;23.35;;;;;;;;;;10564877;28;20956;-90
2024/01/03 03:34:26;;;;;;;51.63;25.60;;;;;;;;;;10579415;28;20402;-89
2024/01/03 03:39:30;;;;;;;53.08;24.92;;;;;;;;;;10571665;28;20892;-90
2024/01/03 03:44:33;;;;;;;47.50;23.77;;;;;;;;;;10563516;28;20479;-90
2024/01/03 03:49:35;;;;;;;50.65;24.80;;;;;;;;;;10566808;28;20456;-91
2024/01/03 03:54:39;;;;;;;49.63;24.03;;;;;;;;;;10576404;28;20454;-90
2024/01/03 03:59:42;;;;;;;46.57;24.03;;;;;;;;;;10577079;28;20878;-90
2024/01/03 04:04:45;;;;;;;50.67;23.63;;;;;;;;;;10562396;28;20451;-91
2024/01/03 04:09:48;;;;;;;45.20;23.87;;;;;;;;;;10574269;28;20412;-89
2024/01/03 04:14:51;;;;;;;45.72;23.85;;;;;;;;;;10563389;28;20762;-89
2024/01/03 04:19:54;;;;;;;46.75;23.75;;;;;;;;;;10569163;28;20405;-90
2024/01/03 04:24:58;;;;;;;45.42;22.15;;;;;;;;;;10573391;28;20402;-90
2024/01/03 04:30:00;;;;;;;42.73;22.83;;;;;;;;;;10570432;28;20915;-90
2024/01/03 04:35:03;;;;;;;45.60;24.13;;;;;;;;;;10570206;28;20467;-91
2024/01/03 04:40:08;;;;;;;45.63;23.73;;;;;;;;;;10560155;28;20739;-91
2024/01/03 04:45:11;;;;;;;46.70;24.30;;;;;;;;;;10567959;28;20453;-90
2024/01/03 04:50:13;;;;;;;46.08;23.95;;;;;;;;;;10587012;28;20419;-89
2024/01/03 04:55:17;;;;;;;46.70;24.83;;;;;;;;;;10574907;28;20448;-90
2024/01/03 05:00:20;;;;;;;45.25;24.70;;;;;;;;;;10576609;28;20410;-90
2024/01/03 05:05:22;;;;;;;44.58;22.50;;;;;;;;;;10566973;28;20402;-90
2024/01/03 05:10:26;;;;;;;45.10;23.90;;;;;;;;;;10571485;28;20415;-90
2024/01/03 05:15:29;;;;;;;43.70;23.37;;;;;;;;;;10575234;28;20456;-90
2024/01/03 05:20:31;;;;;;;43.15;24.00;;;;;;;;;;10568745;28;20404;-90
2024/01/03 05:25:35;;;;;;;47.67;22.33;;;;;;;;;;10560047;28;20462;-90
2024/01/03 05:30:37;;;;;;;43.83;22.73;;;;;;;;;;10566813;28;20478;-90
2024/01/03 05:35:40;;;;;;;46.75;23.17;;;;;;;;;;10570036;28;20468;-90
2024/01/03 05:40:43;;;;;;;53.17;24.83;;;;;;;;;;10571977;28;21170;-90
2024/01/03 05:45:46;;;;;;;47.20;23.83;;;;;;;;;;10575409;28;20403;-90
2024/01/03 05:50:48;;;;;;;50.17;23.47;;;;;;;;;;10568028;28;20445;-89
2024/01/03 05:55:52;;;;;;;45.30;23.40;;;;;;;;;;10570903;28;20403;-90
2024/01/03 06:00:54;;;;;;;43.65;23.60;;;;;;;;;;10564582;28;20396;-90
2024/01/03 06:05:57;;;;;;;45.28;24.38;;;;;;;;;;10574284;28;20416;-90
2024/01/03 06:11:01;;;;;;;48.90;24.13;;;;;;;;;;10555042;28;20408;-91
2024/01/03 06:16:03;;;;;;;46.13;23.83;;;;;;;;;;10572744;28;20409;-91
2024/01/03 06:21:11;;;;;;;49.97;22.95;;;;;;;;;;10566173;28;20410;-90
2024/01/03 06:26:14;;;;;;;45.67;23.63;;;;;;;;;;10569426;28;20452;-91
2024/01/03 06:31:21;;;;;;;50.08;24.50;;;;;;;;;;10568170;28;20448;-91
2024/01/03 06:36:24;;;;;;;55.35;27.33;;;;;;;;;;10565530;28;20400;-91
2024/01/03 06:41:27;;;;;;;49.83;23.90;;;;;;;;;;10571202;28;20458;-91
2024/01/03 06:46:30;;;;;;;51.03;25.47;;;;;;;;;;10565618;28;20483;-91
2024/01/03 06:51:32;;;;;;;46.75;22.90;;;;;;;;;;10563897;28;20489;-90
2024/01/03 06:56:36;;;;;;;54.42;27.55;;;;;;;;;;10570413;28;20414;-91
2024/01/03 07:01:38;;;;;;;77.40;39.17;;;;;;;;;;10566277;28;20430;-91
2024/01/03 07:06:40;;;;;;;76.10;36.73;;;;;;;;;;10568168;28;20407;-91
2024/01/03 07:11:44;;;;;;;53.78;28.52;;;;;;;;;;10562921;28;20468;-90
2024/01/03 07:16:46;;;;;;;48.70;22.23;;;;;;;;;;10571679;28;20471;-91
2024/01/03 07:21:49;;;;;;;45.85;22.38;;;;;;;;;;10562324;28;21190;-90
2024/01/03 07:26:53;;;;;;;51.60;24.30;;;;;;;;;;10559743;28;20469;-91
2024/01/03 07:31:55;;;;;;;50.08;24.05;;;;;;;;;;10568044;28;20420;-91
2024/01/03 07:36:57;;;;;;;42.70;22.05;;;;;;;;;;10567588;28;20412;-90
2024/01/03 07:42:01;;;;;;;47.20;22.73;;;;;;;;;;10569823;28;20416;-89
2024/01/03 07:47:04;;;;;;;47.22;24.20;;;;;;;;;;10562940;28;20829;-91
2024/01/03 07:52:06;;;;;;;44.47;21.88;;;;;;;;;;10564245;28;20415;-91
2024/01/03 07:57:10;;;;;;;54.13;23.92;;;;;;;;;;10563605;28;20428;-90
2024/01/03 08:02:13;;;;;;;50.25;24.85;;;;;;;;;;10566330;28;20403;-90
2024/01/03 08:07:16;;;;;;;47.05;23.77;;;;;;;;;;10557047;28;20438;-90
2024/01/03 08:12:19;;;;;;;47.80;21.95;;;;;;;;;;10568257;28;20420;-90
2024/01/03 08:17:22;;;;;;;49.47;23.73;;;;;;;;;;10572606;28;20436;-90
2024/01/03 08:22:24;;;;;;;49.25;25.10;;;;;;;;;;10558504;28;20472;-91
2024/01/03 08:27:29;;;;;;;50.93;25.67;;;;;;;;;;10555774;28;20450;-90
2024/01/03 08:32:31;;;;;;;43.90;23.03;;;;;;;;;;10573384;28;20418;-90
2024/01/03 08:37:33;;;;;;;49.80;26.45;;;;;;;;;;10571486;28;20463;-91
2024/01/03 08:42:37;;;;;;;51.38;24.88;;;;;;;;;;10490224;28;20463;-91
2024/01/03 08:47:40;;;;;;;47.65;24.00;;;;;;;;;;10501157;28;20435;-90
2024/01/03 08:52:43;;;;;;;50.07;24.20;;;;;;;;;;10494451;28;20456;-91
2024/01/03 08:57:48;;;;;;;47.65;23.75;;;;;;;;;;10489907;28;20877;-91
2024/01/03 09:02:51;;;;;;;49.45;24.13;;;;;;;;;;10486454;28;20407;-91
2024/01/03 09:07:53;;;;;;;48.63;24.30;;;;;;;;;;10491085;28;20489;-90
2024/01/03 09:12:57;;;;;;;46.15;22.02;;;;;;;;;;10480554;28;20497;-92
2024/01/03 09:17:59;;;;;;;44.10;21.90;;;;;;;;;;10492976;28;20448;-90
2024/01/03 09:23:02;;;;;;;49.33;24.38;;;;;;;;;;10491049;28;20500;-90
2024/01/03 09:28:10;;;;;;;49.72;22.58;;;;;;;;;;10500076;28;20410;-91
2024/01/03 09:33:13;;;;;;;47.03;22.38;;;;;;;;;;10492574;28;20422;-91
2024/01/03 09:38:15;;;;;;;51.03;24.13;;;;;;;;;;10502252;23;20410;-90
2024/01/03 09:43:20;;;;;;;48.22;23.70;;;;;;;;;;10519306;28;20463;-90
2024/01/03 09:48:22;;;;;;;43.28;20.23;;;;;;;;;;10523851;28;20421;-87
2024/01/03 09:53:26;;;;;;;47.75;23.45;;;;;;;;;;10519117;28;20416;-87
2024/01/03 09:58:30;;;;;;;46.00;21.67;;;;;;;;;;10520616;28;20476;-87
2024/01/03 10:03:32;;;;;;;43.57;21.40;;;;;;;;;;10513755;28;20430;-90
2024/01/03 10:08:35;;;;;;;43.03;19.27;;;;;;;;;;10518850;28;20408;-89
2024/01/03 10:13:41;;;;;;;40.17;19.40;;;;;;;;;;10532584;28;20417;-87
2024/01/03 10:18:44;;;;;;;44.10;20.97;;;;;;;;;;10519792;28;20400;-90
2024/01/03 10:24:01;;;;;;;44.17;20.87;;;;;;;;;;10515739;28;20459;-88
2024/01/03 10:29:11;;;;;;;43.17;20.15;;;;;;;;;;10517531;28;20392;-88
2024/01/03 10:34:17;;;;;;;42.30;20.27;;;;;;;;;;10510861;28;20449;-88
2024/01/03 10:39:20;;;;;;;42.70;20.70;;;;;;;;;;10509753;28;20477;-88
2024/01/03 10:44:24;;;;;;;47.28;21.10;;;;;;;;;;10511933;28;20408;-88
2024/01/03 10:49:27;;;;;;;48.80;20.67;;;;;;;;;;10517380;28;20907;-88
2024/01/03 10:54:39;;;;;;;43.15;20.23;;;;;;;;;;10508370;28;20462;-88
2024/01/03 10:59:51;;;;;;;43.53;20.63;;;;;;;;;;10511391;28;20464;-89
2024/01/03 11:04:59;;;;;;;41.43;19.83;;;;;;;;;;10514971;28;20401;-88
2024/01/03 11:10:01;;;;;;;39.88;19.15;;;;;;;;;;10515322;28;20397;-87
2024/01/03 11:15:28;;;;;;;38.08;18.40;;;;;;;;;;10516433;28;20451;-88
2024/01/03 11:20:31;;;;;;;41.05;18.38;;;;;;;;;;10515943;28;20404;-88
2024/01/03 11:25:48;;;;;;;41.33;18.80;;;;;;;;;;10512346;28;20438;-88
2024/01/03 11:30:52;;;;;;;35.88;17.60;;;;;;;;;;10520673;28;20762;-88
2024/01/03 11:35:54;;;;;;;44.40;18.50;;;;;;;;;;10510795;28;20485;-89
2024/01/03 11:40:57;;;;;;;41.50;18.52;;;;;;;;;;10508411;28;20762;-88
2024/01/03 11:46:09;;;;;;;38.13;17.25;;;;;;;;;;10511031;28;20412;-88
2024/01/03 11:51:22;;;;;;;41.17;18.02;;;;;;;;;;10491932;28;20432;-88
2024/01/03 11:56:28;;;;;;;37.53;16.52;;;;;;;;;;10502110;28;20511;-88
2024/01/03 12:01:32;;;;;;;34.13;14.98;;;;;;;;;;10501460;28;21001;-87
2024/01/03 12:06:35;;;;;;;38.50;16.20;;;;;;;;;;10495347;28;20454;-88
2024/01/03 12:11:37;;;;;;;37.92;16.58;;;;;;;;;;10500941;28;20455;-88
2024/01/03 12:16:48;;;;;;;34.87;15.07;;;;;;;;;;10505827;28;20450;-87
2024/01/03 12:21:57;;;;;;;37.67;15.30;;;;;;;;;;10505330;28;20450;-88
2024/01/03 12:26:59;;;;;;;37.40;15.73;;;;;;;;;;10487187;28;20551;-86
2024/01/03 12:32:13;;;;;;;32.17;15.07;;;;;;;;;;10484845;28;20465;-88
2024/01/03 12:37:16;;;;;;;31.65;13.48;;;;;;;;;;10496492;28;20529;-87
2024/01/03 12:42:18;;;;;;;34.57;14.33;;;;;;;;;;10493093;28;20999;-88
2024/01/03 12:47:22;;;;;;;31.27;14.68;;;;;;;;;;10492030;28;20468;-88
2024/01/03 12:52:29;;;;;;;31.48;14.25;;;;;;;;;;10496763;28;20523;-88
2024/01/03 12:57:32;;;;;;;29.45;13.68;;;;;;;;;;10494681;28;20982;-88
2024/01/03 13:02:35;;;;;;;29.87;13.87;;;;;;;;;;10488259;28;20484;-87
2024/01/03 13:07:38;;;;;;;33.10;15.27;;;;;;;;;;10495470;28;20446;-88
2024/01/03 13:12:40;;;;;;;32.72;15.90;;;;;;;;;;10495719;28;20527;-88
2024/01/03 13:17:45;;;;;;;34.90;16.70;;;;;;;;;;10490449;28;20434;-87
2024/01/03 13:22:47;;;;;;;30.45;13.93;;;;;;;;;;10495505;28;20515;-87
2024/01/03 13:27:50;;;;;;;30.20;13.98;;;;;;;;;;10499943;28;20437;-88
2024/01/03 13:32:53;;;;;;;31.60;13.65;;;;;;;;;;10509150;28;20470;-88
2024/01/03 13:37:56;;;;;;;28.90;14.20;;;;;;;;;;10511533;28;20520;-88
2024/01/03 13:43:03;;;;;;;32.08;15.73;;;;;;;;;;10503882;28;20435;-88
2024/01/03 13:48:14;;;;;;;31.90;16.10;;;;;;;;;;10504186;28;20433;-88
2024/01/03 13:53:17;;;;;;;32.63;15.13;;;;;;;;;;10500655;28;20426;-89
2024/01/03 13:58:19;;;;;;;29.40;14.80;;;;;;;;;;10516899;28;20483;-88
2024/01/03 14:03:24;;;;;;;31.33;15.20;;;;;;;;;;10508587;28;20405;-89
2024/01/03 14:08:29;;;;;;;33.77;16.67;;;;;;;;;;10500989;28;20410;-88
2024/01/03 14:13:34;;;;;;;29.70;14.97;;;;;;;;;;10506874;28;20503;-88
2024/01/03 14:18:38;;;;;;;30.70;15.18;;;;;;;;;;10502345;28;20469;-89
2024/01/03 14:23:41;;;;;;;30.08;14.80;;;;;;;;;;10503535;28;20400;-88
2024/01/03 14:28:43;;;;;;;26.65;13.85;;;;;;;;;;10506194;28;20433;-89
2024/01/03 14:33:47;;;;;;;27.88;14.05;;;;;;;;;;10504833;28;20449;-89
2024/01/03 14:38:49;;;;;;;29.73;15.23;;;;;;;;;;10486880;28;20437;-88
2024/01/03 14:43:59;;;;;;;30.92;15.52;;;;;;;;;;10494558;28;21716;-88
2024/01/03 14:49:02;;;;;;;25.57;13.83;;;;;;;;;;10498066;28;20434;-88
2024/01/03 14:54:05;;;;;;;27.63;14.10;;;;;;;;;;10488055;28;20461;-89
2024/01/03 14:59:09;;;;;;;24.80;13.55;;;;;;;;;;10494708;28;20428;-89
2024/01/03 15:04:13;;;;;;;27.27;14.18;;;;;;;;;;10487861;28;20479;-87
2024/01/03 15:09:16;;;;;;;32.33;15.60;;;;;;;;;;10487253;28;20503;-88
2024/01/03 15:14:18;;;;;;;29.17;14.80;;;;;;;;;;10506488;28;20472;-88
2024/01/03 15:19:22;;;;;;;29.65;14.65;;;;;;;;;;10491631;28;20917;-89
2024/01/03 15:24:25;;;;;;;29.65;15.38;;;;;;;;;;10492492;28;20437;-89
2024/01/03 15:29:27;;;;;;;32.77;17.03;;;;;;;;;;10496232;28;20499;-88
2024/01/03 15:34:31;;;;;;;31.37;15.77;;;;;;;;;;10488132;28;20764;-88
2024/01/03 15:39:34;;;;;;;31.73;15.90;;;;;;;;;;10487550;28;20501;-89
2024/01/03 15:44:38;;;;;;;32.45;16.70;;;;;;;;;;10498848;28;20388;-89
2024/01/03 15:49:42;;;;;;;34.83;17.55;;;;;;;;;;10519654;28;20433;-89
2024/01/03 15:54:45;;;;;;;40.47;19.80;;;;;;;;;;10522099;28;20843;-89
2024/01/03 15:59:47;;;;;;;35.67;17.53;;;;;;;;;;10522268;28;20394;-88
2024/01/03 16:04:51;;;;;;;68.60;36.37;;;;;;;;;;10515633;28;20396;-88
2024/01/03 16:09:54;;;;;;;41.70;22.13;;;;;;;;;;10511750;28;20475;-89
2024/01/03 16:14:57;;;;;;;41.47;22.60;;;;;;;;;;10513085;28;20415;-88
2024/01/03 16:20:00;;;;;;;42.20;22.15;;;;;;;;;;10520927;28;20398;-89
2024/01/03 16:25:10;;;;;;;35.10;17.97;;;;;;;;;;10508821;28;20434;-89
2024/01/03 16:30:13;;;;;;;35.72;17.98;;;;;;;;;;10505074;28;20436;-88
2024/01/03 16:35:18;;;;;;;47.03;25.30;;;;;;;;;;10518875;28;20430;-95
2024/01/03 16:40:22;;;;;;;32.73;16.73;;;;;;;;;;10521193;28;20778;-94
2024/01/03 16:45:24;;;;;;;33.27;17.43;;;;;;;;;;10542861;28;20472;-94
2024/01/03 16:50:29;;;;;;;44.33;22.27;;;;;;;;;;10509966;28;20400;-94
2024/01/03 16:55:31;;;;;;;37.03;20.80;;;;;;;;;;10505793;28;20420;-96
2024/01/03 17:00:34;;;;;;;47.10;25.52;;;;;;;;;;10504124;28;20924;-95
2024/01/03 17:05:38;;;;;;;43.63;20.83;;;;;;;;;;10518217;28;20434;-93
2024/01/03 17:10:40;;;;;;;50.00;22.90;;;;;;;;;;10506262;28;20410;-94
2024/01/03 17:15:43;;;;;;;44.73;22.47;;;;;;;;;;10507490;28;20418;-96
2024/01/03 17:20:47;;;;;;;43.45;22.58;;;;;;;;;;10508917;28;20488;-95
2024/01/03 17:25:49;;;;;;;42.92;22.40;;;;;;;;;;10497321;28;20428;-94
2024/01/03 17:30:52;;;;;;;60.45;32.03;;;;;;;;;;10502192;28;20577;-95
2024/01/03 17:35:55;;;;;;;37.92;20.63;;;;;;;;;;10499241;28;20776;-94
2024/01/03 17:40:57;;;;;;;55.03;27.77;;;;;;;;;;10507658;28;20402;-94
2024/01/03 17:46:00;;;;;;;46.23;22.37;;;;;;;;;;10515705;28;20402;-94
2024/01/03 17:51:04;;;;;;;48.90;25.90;;;;;;;;;;10514741;28;20953;-95
2024/01/03 17:56:08;;;;;;;47.30;23.70;;;;;;;;;;10509697;28;20968;-95
2024/01/03 18:01:10;;;;;;;48.33;23.17;;;;;;;;;;10504270;28;20402;-95
2024/01/03 18:06:14;;;;;;;47.10;23.02;;;;;;;;;;10499908;28;20883;-95
2024/01/03 18:11:17;;;;;;;47.93;23.70;;;;;;;;;;10505703;28;20402;-93
2024/01/03 18:16:23;;;;;;;41.78;20.90;;;;;;;;;;10501681;28;20505;-93
2024/01/03 18:21:27;;;;;;;46.65;23.00;;;;;;;;;;10503670;28;20473;-92
2024/01/03 18:26:29;;;;;;;44.07;23.03;;;;;;;;;;10490041;28;20494;-92
2024/01/03 18:31:32;;;;;;;56.22;25.95;;;;;;;;;;10503700;28;20452;-91
2024/01/03 18:36:38;;;;;;;49.80;24.90;;;;;;;;;;10523397;28;20449;-92
2024/01/03 19:53:50;;;;;;;53.13;27.13;;;;;;;;;;10456053;28;20412;-82
2024/01/03 19:58:55;;;;;;;50.70;27.92;;;;;;;;;;10460542;28;20958;-84
2024/01/03 20:04:00;;;;;;;56.75;28.85;;;;;;;;;;10476433;28;20475;-83
2024/01/03 20:09:03;;;;;;;52.83;27.95;;;;;;;;;;10477803;28;20416;-84
2024/01/03 20:14:06;;;;;;;56.28;28.58;;;;;;;;;;10468541;28;21037;-85
2024/01/03 20:19:09;;;;;;;55.13;28.58;;;;;;;;;;10470418;28;20835;-84
2024/01/03 20:24:13;;;;;;;52.10;27.45;;;;;;;;;;10461392;28;20487;-86
2024/01/03 20:29:17;;;;;;;51.22;27.42;;;;;;;;;;10492095;28;20416;-85
2024/01/03 20:34:19;;;;;;;62.35;31.02;;;;;;;;;;10474702;28;20449;-85
2024/01/03 20:39:23;;;;;;;65.23;33.30;;;;;;;;;;10475939;28;20515;-84
2024/01/03 20:44:25;;;;;;;65.85;33.97;;;;;;;;;;10466343;28;20475;-85
2024/01/03 20:49:28;;;;;;;67.82;34.42;;;;;;;;;;10477552;28;21036;-83
2024/01/03 20:54:35;;;;;;;63.67;32.40;;;;;;;;;;10540314;28;20443;-85
2024/01/03 20:59:38;;;;;;;57.40;31.35;;;;;;;;;;10545884;28;20516;-85
2024/01/03 21:04:40;;;;;;;57.08;30.55;;;;;;;;;;10554968;28;20509;-86
2024/01/03 21:09:44;;;;;;;57.90;29.60;;;;;;;;;;10546767;28;20460;-86
2024/01/03 21:14:46;;;;;;;64.40;31.90;;;;;;;;;;10546923;28;20452;-85
2024/01/03 21:19:48;;;;;;;63.58;31.15;;;;;;;;;;10544395;28;20444;-84
2024/01/03 21:24:52;;;;;;;58.42;30.40;;;;;;;;;;10542051;28;20444;-84
2024/01/03 21:29:54;;;;;;;53.60;28.73;;;;;;;;;;10544619;28;20499;-85
2024/01/03 21:34:57;;;;;;;54.27;27.50;;;;;;;;;;10543634;28;20942;-86
2024/01/03 21:40:02;;;;;;;53.60;27.50;;;;;;;;;;10543861;28;20527;-85
2024/01/03 21:45:05;;;;;;;52.03;28.30;;;;;;;;;;10546808;28;21013;-84
2024/01/03 21:50:08;;;;;;;55.38;28.52;;;;;;;;;;10543289;28;20479;-84
2024/01/03 21:55:12;;;;;;;53.30;28.10;;;;;;;;;;10543069;28;20463;-85
2024/01/03 22:00:15;;;;;;;54.80;28.90;;;;;;;;;;10539329;28;20930;-85
2024/01/03 22:05:20;;;;;;;59.45;29.45;;;;;;;;;;10539413;28;20424;-85
2024/01/03 22:10:24;;;;;;;59.90;29.55;;;;;;;;;;10538892;28;20991;-85
2024/01/03 22:15:27;;;;;;;60.33;28.80;;;;;;;;;;10560075;28;20441;-85
2024/01/03 22:20:29;;;;;;;59.17;30.05;;;;;;;;;;10570110;28;20403;-86
2024/01/03 22:25:33;;;;;;;65.03;31.08;;;;;;;;;;10542856;28;20400;-85
2024/01/03 22:30:35;;;;;;;59.50;29.73;;;;;;;;;;10545722;28;20803;-85
2024/01/03 22:35:37;;;;;;;58.13;28.35;;;;;;;;;;10554084;28;20508;-85
2024/01/03 22:40:41;;;;;;;54.70;27.38;;;;;;;;;;10550672;28;20408;-86
2024/01/03 22:45:43;;;;;;;59.08;29.40;;;;;;;;;;10544956;28;20438;-85
2024/01/03 22:50:46;;;;;;;58.60;28.65;;;;;;;;;;10550523;28;20854;-85
2024/01/03 22:55:50;;;;;;;55.83;27.00;;;;;;;;;;10552344;28;20418;-85
2024/01/03 23:00:52;;;;;;;59.05;29.15;;;;;;;;;;10544525;28;20422;-86
2024/01/03 23:05:54;;;;;;;57.50;29.05;;;;;;;;;;10549035;28;20412;-86
2024/01/03 23:10:58;;;;;;;57.15;29.08;;;;;;;;;;10556646;28;20395;-85
2024/01/03 23:16:02;;;;;;;50.70;26.30;;;;;;;;;;10551563;28;20414;-85
2024/01/03 23:21:05;;;;;;;54.13;28.02;;;;;;;;;;10542591;28;20501;-85
2024/01/03 23:26:09;;;;;;;53.22;26.83;;;;;;;;;;10553541;28;20427;-86
2024/01/03 23:31:12;;;;;;;55.30;27.87;;;;;;;;;;10550735;28;20465;-86
2024/01/03 23:36:15;;;;;;;54.88;28.13;;;;;;;;;;10550111;28;20439;-86
2024/01/03 23:41:19;;;;;;;48.40;26.40;;;;;;;;;;10548758;28;20395;-85
2024/01/03 23:46:21;;;;;;;54.33;26.77;;;;;;;;;;10548436;28;20456;-86
2024/01/03 23:51:24;;;;;;;49.50;27.63;;;;;;;;;;10544297;28;20976;-86
2024/01/03 23:56:28;;;;;;;52.67;25.98;;;;;;;;;;10542820;28;20460;-85
